createdAt,value
2023-05-25T00:01:21.550Z,58.87
2023-05-25T00:03:49.697Z,58.80
2023-05-25T00:06:18.406Z,59.17
2023-05-25T00:08:46.681Z,60.67
2023-05-25T00:11:14.739Z,61.60
2023-05-25T00:13:44.205Z,63.03
2023-05-25T00:16:12.304Z,63.43
2023-05-25T00:18:40.399Z,64.33
2023-05-25T00:21:08.494Z,66.83
2023-05-25T00:23:36.854Z,66.40
2023-05-25T00:26:05.558Z,66.93
2023-05-25T00:28:33.763Z,68.00
2023-05-25T00:31:03.264Z,67.23
2023-05-25T00:33:31.576Z,68.27
2023-05-25T00:36:00.422Z,70.17
2023-05-25T00:38:28.654Z,69.47
2023-05-25T00:40:57.516Z,70.13
2023-05-25T00:43:25.645Z,69.20
2023-05-25T00:45:55.135Z,70.97
2023-05-25T00:48:26.703Z,70.93
2023-05-25T00:50:58.087Z,70.60
2023-05-25T00:53:27.852Z,71.80
2023-05-25T00:56:03.514Z,70.70
2023-05-25T00:58:35.922Z,68.93
2023-05-25T01:01:06.495Z,69.83
2023-05-25T01:03:38.431Z,71.10
2023-05-25T01:06:13.269Z,71.50
2023-05-25T01:08:45.536Z,71.37
2023-05-25T01:11:16.410Z,72.90
2023-05-25T01:13:46.187Z,72.33
2023-05-25T01:16:15.326Z,71.87
2023-05-25T01:18:44.905Z,71.27
2023-05-25T01:21:22.144Z,70.07
2023-05-25T01:23:56.497Z,69.73
2023-05-25T01:26:28.343Z,69.90
2023-05-25T01:28:59.448Z,69.97
2023-05-25T01:31:27.902Z,71.20
2023-05-25T01:33:57.691Z,70.33
2023-05-25T01:36:27.187Z,71.17
2023-05-25T01:38:55.718Z,70.43
2023-05-25T01:41:23.829Z,69.97
2023-05-25T01:43:52.425Z,69.33
2023-05-25T01:46:28.541Z,70.40
2023-05-25T01:49:04.179Z,73.73
2023-05-25T01:51:45.087Z,71.70
2023-05-25T01:54:20.264Z,73.70
2023-05-25T01:56:52.123Z,73.17
2023-05-25T01:59:22.800Z,72.77
2023-05-25T02:01:53.866Z,72.53
2023-05-25T02:04:23.218Z,74.17
2023-05-25T02:06:54.067Z,73.77
2023-05-25T02:09:22.151Z,73.93
2023-05-25T02:11:52.098Z,72.33
2023-05-25T02:14:20.233Z,73.13
2023-05-25T02:16:48.462Z,71.87
2023-05-25T02:19:16.577Z,74.27
2023-05-25T02:21:45.176Z,73.00
2023-05-25T02:24:14.838Z,71.50
2023-05-25T02:26:42.876Z,72.87
2023-05-25T02:29:11.761Z,71.40
2023-05-25T02:31:39.967Z,72.77
2023-05-25T02:34:08.103Z,72.67
2023-05-25T02:36:36.413Z,72.00
2023-05-25T02:39:06.254Z,74.57
2023-05-25T02:41:35.676Z,73.30
2023-05-25T02:44:03.740Z,74.27
2023-05-25T02:46:33.797Z,73.73
2023-05-25T02:49:02.260Z,74.17
2023-05-25T02:51:30.811Z,74.97
2023-05-25T02:54:01.354Z,75.93
2023-05-25T02:56:29.594Z,75.70
2023-05-25T02:59:00.389Z,76.00
2023-05-25T03:01:32.721Z,75.07
2023-05-25T03:04:01.909Z,75.83
2023-05-25T03:06:36.704Z,76.73
2023-05-25T03:09:15.149Z,77.30
2023-05-25T03:11:43.495Z,77.03
2023-05-25T03:14:17.194Z,77.00
2023-05-25T03:16:53.708Z,77.60
2023-05-25T03:19:22.642Z,76.83
2023-05-25T03:21:50.680Z,78.03
2023-05-25T03:24:20.329Z,75.83
2023-05-25T03:26:48.404Z,77.90
2023-05-25T03:29:18.836Z,76.77
2023-05-25T03:31:47.348Z,78.10
2023-05-25T03:34:16.144Z,76.83
2023-05-25T03:36:46.010Z,77.07
2023-05-25T03:39:15.317Z,79.00
2023-05-25T03:41:44.311Z,78.83
2023-05-25T03:44:12.804Z,79.13
2023-05-25T03:46:43.354Z,78.93
2023-05-25T03:49:14.182Z,80.10
2023-05-25T03:51:42.959Z,81.23
2023-05-25T03:54:11.726Z,82.43
2023-05-25T03:56:39.873Z,83.00
2023-05-25T03:59:08.079Z,84.17
2023-05-25T04:01:39.094Z,85.03
2023-05-25T04:04:08.866Z,80.70
2023-05-25T04:06:38.341Z,85.00
2023-05-25T04:09:07.903Z,86.80
2023-05-25T04:11:36.026Z,85.13
2023-05-25T04:14:04.189Z,86.00
2023-05-25T04:16:35.892Z,85.80
2023-05-25T04:19:05.144Z,87.40
2023-05-25T04:21:34.877Z,88.50
2023-05-25T04:24:03.558Z,89.00
2023-05-25T04:26:32.083Z,87.60
2023-05-25T04:29:02.470Z,87.57
2023-05-25T04:31:49.801Z,89.07
2023-05-25T04:34:34.239Z,92.10
2023-05-25T04:37:09.232Z,90.60
2023-05-25T04:39:38.332Z,91.33
2023-05-25T04:42:06.860Z,93.33
2023-05-25T04:44:36.292Z,88.73
2023-05-25T04:47:07.355Z,92.83
2023-05-25T04:49:36.152Z,93.40
2023-05-25T04:52:04.985Z,93.37
2023-05-25T04:54:34.395Z,90.73
2023-05-25T04:57:04.208Z,91.10
2023-05-25T04:59:33.174Z,90.87
2023-05-25T05:02:02.096Z,91.87
2023-05-25T05:04:30.577Z,90.30
2023-05-25T05:07:00.048Z,88.93
2023-05-25T05:09:30.699Z,85.40
2023-05-25T05:12:03.103Z,86.30
2023-05-25T05:14:36.481Z,85.77
2023-05-25T05:17:04.701Z,84.50
2023-05-25T05:19:33.849Z,86.10
2023-05-25T05:22:02.037Z,83.10
2023-05-25T05:24:30.276Z,85.60
2023-05-25T05:26:59.736Z,86.37
2023-05-25T05:29:34.339Z,82.23
2023-05-25T05:32:02.633Z,82.37
2023-05-25T05:34:31.705Z,83.47
2023-05-25T05:37:03.929Z,80.70
2023-05-25T05:39:32.095Z,80.87
2023-05-25T05:42:00.431Z,81.10
2023-05-25T05:44:29.440Z,81.07
2023-05-25T05:47:01.824Z,78.80
2023-05-25T05:49:32.018Z,78.50
2023-05-25T05:52:01.984Z,74.23
2023-05-25T05:54:30.179Z,76.07
2023-05-25T05:57:02.495Z,79.27
2023-05-25T05:59:30.594Z,79.73
2023-05-25T06:02:00.630Z,82.13
2023-05-25T06:04:29.236Z,76.27
2023-05-25T06:06:59.212Z,72.73
2023-05-25T06:09:27.621Z,73.03
2023-05-25T06:11:59.783Z,72.57
2023-05-25T06:14:28.875Z,71.90
2023-05-25T06:17:02.857Z,67.57
2023-05-25T06:19:31.203Z,71.13
2023-05-25T06:21:59.334Z,72.13
2023-05-25T06:24:27.473Z,75.20
2023-05-25T06:26:55.623Z,75.40
2023-05-25T06:29:23.813Z,73.63
2023-05-25T06:31:51.955Z,74.53
2023-05-25T06:34:21.597Z,72.40
2023-05-25T06:36:49.768Z,66.40
2023-05-25T06:39:17.923Z,68.70
2023-05-25T06:41:46.064Z,66.80
2023-05-25T06:44:19.572Z,69.40
2023-05-25T06:46:48.835Z,70.77
2023-05-25T06:49:17.414Z,69.87
2023-05-25T06:51:47.048Z,68.50
2023-05-25T06:54:15.494Z,67.25
2023-05-25T06:56:43.750Z,67.90
2023-05-25T06:59:11.872Z,71.18
2023-05-25T07:01:40.039Z,72.70
2023-05-25T07:04:08.143Z,70.17
2023-05-25T07:06:36.610Z,70.63
2023-05-25T07:09:06.156Z,69.30
2023-05-25T07:11:34.475Z,71.22
2023-05-25T07:14:02.623Z,70.40
2023-05-25T07:16:32.141Z,69.35
2023-05-25T07:19:00.627Z,62.43
2023-05-25T07:21:28.908Z,61.03
2023-05-25T07:23:57.057Z,58.55
2023-05-25T07:26:28.056Z,56.47
2023-05-25T07:28:56.132Z,54.85
2023-05-25T07:31:32.841Z,54.15
2023-05-25T07:34:08.537Z,53.85
2023-05-25T07:36:44.107Z,53.23
2023-05-25T07:39:12.911Z,49.55
2023-05-25T07:41:42.289Z,47.83
2023-05-25T07:44:10.327Z,47.45
2023-05-25T07:46:38.460Z,44.90
2023-05-25T07:49:12.016Z,42.83
2023-05-25T07:51:40.473Z,42.42
2023-05-25T07:54:08.557Z,40.72
2023-05-25T07:56:36.717Z,38.78
2023-05-25T07:59:06.202Z,38.58
2023-05-25T08:01:34.400Z,39.75
2023-05-25T08:04:02.711Z,39.28
2023-05-25T08:06:32.540Z,41.78
2023-05-25T08:09:00.586Z,41.42
2023-05-25T08:11:28.840Z,42.35
2023-05-25T08:13:56.926Z,42.40
2023-05-25T08:16:26.935Z,42.20
2023-05-25T08:18:55.020Z,39.33
2023-05-25T08:21:23.141Z,39.00
2023-05-25T08:23:51.714Z,37.90
2023-05-25T08:26:34.716Z,39.67
2023-05-25T08:29:06.570Z,37.38
2023-05-25T08:31:37.456Z,36.70
2023-05-25T08:34:05.596Z,35.95
2023-05-25T08:36:35.972Z,35.60
2023-05-25T08:39:04.815Z,35.33
2023-05-25T08:41:34.419Z,36.45
2023-05-25T08:44:06.390Z,34.80
2023-05-25T08:46:36.930Z,35.25
2023-05-25T08:49:10.067Z,36.22
2023-05-25T08:51:39.308Z,35.38
2023-05-25T08:54:10.334Z,35.60
2023-05-25T08:56:47.851Z,36.70
2023-05-25T08:59:24.951Z,38.22
2023-05-25T09:02:08.984Z,40.17
2023-05-25T09:04:37.456Z,38.60
2023-05-25T09:07:10.851Z,39.53
2023-05-25T09:09:41.236Z,36.65
2023-05-25T09:12:10.328Z,39.10
2023-05-25T09:14:45.521Z,39.58
2023-05-25T09:17:16.177Z,41.67
2023-05-25T09:19:44.617Z,41.58
2023-05-25T09:22:16.542Z,43.40
2023-05-25T09:24:46.073Z,45.45
2023-05-25T09:27:17.605Z,47.88
2023-05-25T09:29:46.451Z,49.03
2023-05-25T09:32:17.566Z,47.63
2023-05-25T09:34:45.900Z,51.45
2023-05-25T09:37:16.823Z,47.47
2023-05-25T09:39:47.956Z,47.53
2023-05-25T09:42:16.394Z,48.67
2023-05-25T09:44:44.858Z,48.88
2023-05-25T09:47:14.094Z,48.40
2023-05-25T09:49:44.625Z,50.20
2023-05-25T09:52:13.826Z,50.05
2023-05-25T09:54:45.446Z,50.72
2023-05-25T09:57:13.536Z,51.75
2023-05-25T09:59:42.702Z,53.45
2023-05-25T10:02:10.825Z,52.70
2023-05-25T10:04:39.008Z,50.95
2023-05-25T10:07:09.923Z,46.63
2023-05-25T10:09:42.496Z,47.63
2023-05-25T10:12:11.363Z,48.15
2023-05-25T10:14:39.846Z,47.03
2023-05-25T10:17:09.452Z,48.38
2023-05-25T10:19:42.066Z,46.45
2023-05-25T10:22:17.325Z,45.00
2023-05-25T10:24:54.975Z,46.58
2023-05-25T10:27:27.593Z,45.33
2023-05-25T10:29:58.036Z,43.67
2023-05-25T10:32:27.407Z,43.25
2023-05-25T10:34:58.414Z,43.63
2023-05-25T10:37:29.225Z,42.42
2023-05-25T10:39:58.963Z,42.17
2023-05-25T10:42:29.683Z,42.53
2023-05-25T10:44:58.873Z,42.50
2023-05-25T10:47:27.463Z,42.40
2023-05-25T10:49:58.031Z,42.30
2023-05-25T10:52:30.949Z,41.80
2023-05-25T10:55:01.999Z,42.15
2023-05-25T10:57:30.614Z,39.75
2023-05-25T11:00:06.438Z,40.40
2023-05-25T11:02:51.464Z,39.80
2023-05-25T11:05:34.433Z,40.53
2023-05-25T11:08:06.463Z,42.30
2023-05-25T11:10:54.186Z,45.15
2023-05-25T11:13:41.380Z,44.13
2023-05-25T11:16:24.610Z,43.67
2023-05-25T11:18:55.908Z,44.83
2023-05-25T11:21:40.905Z,45.17
2023-05-25T11:24:15.334Z,41.40
2023-05-25T11:26:56.011Z,43.00
2023-05-25T11:29:25.930Z,41.90
2023-05-25T11:31:56.107Z,40.28
2023-05-25T11:34:29.019Z,38.97
2023-05-25T11:37:01.757Z,40.05
2023-05-25T11:39:32.279Z,39.58
2023-05-25T11:42:05.094Z,41.03
2023-05-25T11:44:34.617Z,41.75
2023-05-25T11:47:06.108Z,41.65
2023-05-25T11:49:34.227Z,42.08
2023-05-25T11:52:07.179Z,41.10
2023-05-25T11:54:37.113Z,39.15
2023-05-25T11:57:06.509Z,39.22
2023-05-25T11:59:34.678Z,37.97
2023-05-25T12:02:04.153Z,37.13
2023-05-25T12:04:34.169Z,39.60
2023-05-25T12:07:05.839Z,39.03
2023-05-25T12:09:34.322Z,38.13
2023-05-25T12:12:05.131Z,38.33
2023-05-25T12:14:36.200Z,40.85
2023-05-25T12:17:04.700Z,38.17
2023-05-25T12:19:33.333Z,35.85
2023-05-25T12:22:01.502Z,37.53
2023-05-25T12:24:29.605Z,37.80
2023-05-25T12:26:59.314Z,38.92
2023-05-25T12:29:29.507Z,38.33
2023-05-25T12:32:04.538Z,39.65
2023-05-25T12:34:32.768Z,37.70
2023-05-25T12:37:01.641Z,38.13
2023-05-25T12:39:39.373Z,39.38
2023-05-25T12:42:15.364Z,38.92
2023-05-25T12:44:46.666Z,39.10
2023-05-25T12:47:16.833Z,40.42
2023-05-25T12:49:46.314Z,40.63
2023-05-25T12:52:33.298Z,39.90
2023-05-25T12:55:19.762Z,39.47
2023-05-25T12:57:52.549Z,38.15
2023-05-25T13:00:23.807Z,39.58
2023-05-25T13:02:52.406Z,40.25
2023-05-25T13:05:24.825Z,39.65
2023-05-25T13:07:53.446Z,38.70
2023-05-25T13:10:21.733Z,39.30
2023-05-25T13:12:51.890Z,38.65
2023-05-25T13:15:22.909Z,40.47
2023-05-25T13:17:52.152Z,38.85
2023-05-25T13:20:23.184Z,39.55
2023-05-25T13:22:52.760Z,41.03
2023-05-25T13:25:22.436Z,41.22
2023-05-25T13:27:52.839Z,39.83
2023-05-25T13:30:23.516Z,42.17
2023-05-25T13:32:52.936Z,39.78
2023-05-25T13:35:34.232Z,40.70
2023-05-25T13:38:02.454Z,38.88
2023-05-25T13:40:30.542Z,38.60
2023-05-25T13:42:58.673Z,38.75
2023-05-25T13:45:28.306Z,40.05
2023-05-25T13:47:56.525Z,37.78
2023-05-25T13:50:24.817Z,41.42
2023-05-25T13:52:53.062Z,39.55
2023-05-25T13:55:21.138Z,40.20
2023-05-25T13:57:49.380Z,42.58
2023-05-25T14:00:18.127Z,39.17
2023-05-25T14:02:47.752Z,39.90
2023-05-25T14:05:15.880Z,41.30
2023-05-25T14:07:44.600Z,47.28
2023-05-25T14:10:12.801Z,48.50
2023-05-25T14:12:41.739Z,48.55
2023-05-25T14:15:10.843Z,48.28
2023-05-25T14:17:39.106Z,46.38
2023-05-25T14:20:09.896Z,47.80
2023-05-25T14:22:38.116Z,45.38
2023-05-25T14:25:07.142Z,43.90
2023-05-25T14:27:35.227Z,44.30
2023-05-25T14:30:03.310Z,43.55
2023-05-25T14:32:31.527Z,39.97
2023-05-25T14:34:59.832Z,40.05
2023-05-25T14:37:29.286Z,43.08
2023-05-25T14:39:57.655Z,47.45
2023-05-25T14:42:25.813Z,46.47
2023-05-25T14:44:53.994Z,42.67
2023-05-25T14:47:22.065Z,38.78
2023-05-25T14:49:50.227Z,36.92
2023-05-25T14:52:18.413Z,41.35
2023-05-25T14:54:47.898Z,41.25
2023-05-25T14:57:17.016Z,39.30
2023-05-25T14:59:45.167Z,39.72
2023-05-25T15:02:13.307Z,39.13
2023-05-25T15:04:41.500Z,39.03
2023-05-25T15:07:11.533Z,36.55
2023-05-25T15:09:41.010Z,38.33
2023-05-25T15:12:10.442Z,37.33
2023-05-25T15:14:40.883Z,37.67
2023-05-25T15:17:09.090Z,33.67
2023-05-25T15:19:37.276Z,34.30
2023-05-25T15:22:05.830Z,35.97
2023-05-25T15:24:35.448Z,34.17
2023-05-25T15:27:05.170Z,33.15
2023-05-25T15:29:34.696Z,32.97
2023-05-25T15:32:02.860Z,32.85
2023-05-25T15:34:31.332Z,31.58
2023-05-25T15:37:00.342Z,31.20
2023-05-25T15:39:28.534Z,31.15
2023-05-25T15:41:56.612Z,34.75
2023-05-25T15:44:24.766Z,34.45
2023-05-25T15:46:54.231Z,34.50
2023-05-25T15:49:22.277Z,34.63
2023-05-25T15:51:53.276Z,32.47
2023-05-25T15:54:21.466Z,33.72
2023-05-25T15:56:49.621Z,32.75
2023-05-25T15:59:17.709Z,32.42
2023-05-25T16:01:45.844Z,33.17
2023-05-25T16:04:15.522Z,34.33
2023-05-25T16:06:43.783Z,32.85
2023-05-25T16:09:12.453Z,35.15
2023-05-25T16:11:40.621Z,35.00
2023-05-25T16:14:08.753Z,37.35
2023-05-25T16:16:36.989Z,37.15
2023-05-25T16:19:05.136Z,38.25
2023-05-25T16:21:37.764Z,40.35
2023-05-25T16:24:06.572Z,39.40
2023-05-25T16:26:35.216Z,39.70
2023-05-25T16:29:03.361Z,40.83
2023-05-25T16:31:31.501Z,40.70
2023-05-25T16:33:59.688Z,43.90
2023-05-25T16:36:35.672Z,43.08
2023-05-25T16:39:06.270Z,44.85
2023-05-25T16:41:34.390Z,45.75
2023-05-25T16:44:02.576Z,45.92
2023-05-25T16:46:30.826Z,46.58
2023-05-25T16:48:58.909Z,47.55
2023-05-25T16:51:27.119Z,47.67
2023-05-25T16:53:56.208Z,50.50
2023-05-25T16:56:26.404Z,51.45
2023-05-25T16:58:54.509Z,52.78
2023-05-25T17:01:22.684Z,54.10
2023-05-25T17:03:50.870Z,52.92
2023-05-25T17:06:19.109Z,55.75
2023-05-25T17:08:47.151Z,56.25
2023-05-25T17:11:15.310Z,56.20
2023-05-25T17:13:44.744Z,56.08
2023-05-25T17:16:12.803Z,59.42
2023-05-25T17:18:41.765Z,58.00
2023-05-25T17:21:09.860Z,58.80
2023-05-25T17:23:37.941Z,59.10
2023-05-25T17:26:06.417Z,57.85
2023-05-25T17:28:34.536Z,60.22
2023-05-25T17:31:04.251Z,58.50
2023-05-25T17:33:37.159Z,62.92
2023-05-25T17:36:06.563Z,62.53
2023-05-25T17:38:42.532Z,61.05
2023-05-25T17:41:11.656Z,62.42
2023-05-25T17:43:39.720Z,64.20
2023-05-25T17:46:09.352Z,62.85
2023-05-25T17:48:38.042Z,63.72
2023-05-25T17:51:06.138Z,63.10
2023-05-25T17:53:34.216Z,60.88
2023-05-25T17:56:02.307Z,64.35
2023-05-25T17:58:30.729Z,65.60
2023-05-25T18:00:59.035Z,64.60
2023-05-25T18:03:28.707Z,64.95
2023-05-25T18:05:56.865Z,63.97
2023-05-25T18:08:25.083Z,65.70
2023-05-25T18:10:53.157Z,66.25
2023-05-25T18:13:21.204Z,68.10
2023-05-25T18:15:49.513Z,69.07
2023-05-25T18:18:20.738Z,70.13
2023-05-25T18:20:50.318Z,70.25
2023-05-25T18:23:18.501Z,70.75
2023-05-25T18:25:46.797Z,72.47
2023-05-25T18:28:15.282Z,73.18
2023-05-25T18:30:43.689Z,75.20
2023-05-25T18:33:11.896Z,75.70
2023-05-25T18:35:39.970Z,78.45
2023-05-25T18:38:09.463Z,80.37
2023-05-25T18:40:37.523Z,80.83
2023-05-25T18:43:12.201Z,83.57
2023-05-25T18:45:40.700Z,84.30
2023-05-25T18:48:09.126Z,85.00
2023-05-25T18:50:37.733Z,87.40
2023-05-25T18:53:07.807Z,87.97
2023-05-25T18:55:37.416Z,88.43
2023-05-25T18:58:05.740Z,90.83
2023-05-25T19:00:34.330Z,90.57
2023-05-25T19:03:02.568Z,92.23
2023-05-25T19:05:30.717Z,92.70
2023-05-25T19:08:00.005Z,92.07
2023-05-25T19:10:28.834Z,90.83
2023-05-25T19:12:58.548Z,91.03
2023-05-25T19:15:26.961Z,90.07
2023-05-25T19:17:55.146Z,90.77
2023-05-25T19:20:23.318Z,90.83
2023-05-25T19:22:51.591Z,89.63
2023-05-25T19:25:19.870Z,92.53
2023-05-25T19:27:48.037Z,93.10
2023-05-25T19:30:17.766Z,93.17
2023-05-25T19:32:46.035Z,92.80
2023-05-25T19:35:14.939Z,93.70
2023-05-25T19:37:43.090Z,94.00
2023-05-25T19:40:13.325Z,94.40
2023-05-25T19:42:41.790Z,93.83
2023-05-25T19:45:10.372Z,93.77
2023-05-25T19:47:39.875Z,96.77
2023-05-25T19:50:09.932Z,96.43
2023-05-25T19:52:38.070Z,96.07
2023-05-25T19:55:06.848Z,97.37
2023-05-25T19:57:34.964Z,96.17
2023-05-25T20:00:03.783Z,97.83
2023-05-25T20:02:41.180Z,97.17
2023-05-25T20:05:10.262Z,97.00
2023-05-25T20:07:38.604Z,98.83
2023-05-25T20:10:07.547Z,94.60
2023-05-25T20:12:35.659Z,96.73
2023-05-25T20:15:03.787Z,94.43
2023-05-25T20:17:31.851Z,94.77
2023-05-25T20:20:01.748Z,96.20
2023-05-25T20:22:29.935Z,96.53
2023-05-25T20:24:59.799Z,96.13
2023-05-25T20:27:27.945Z,95.37
2023-05-25T20:29:56.201Z,95.77
2023-05-25T20:32:24.413Z,96.00
2023-05-25T20:34:52.552Z,96.57
2023-05-25T20:37:22.050Z,95.23
2023-05-25T20:39:50.172Z,97.20
2023-05-25T20:42:18.236Z,97.97
2023-05-25T20:44:46.306Z,99.23
2023-05-25T20:47:14.408Z,101.03
2023-05-25T20:49:42.655Z,99.27
2023-05-25T20:52:10.728Z,100.63
2023-05-25T20:54:44.608Z,99.23
2023-05-25T20:57:13.066Z,98.83
2023-05-25T20:59:41.334Z,101.07
2023-05-25T21:02:09.688Z,100.87
2023-05-25T21:04:37.711Z,102.07
2023-05-25T21:07:06.013Z,100.90
2023-05-25T21:09:34.114Z,101.67
2023-05-25T21:12:03.514Z,102.50
2023-05-25T21:14:31.557Z,102.30
2023-05-25T21:16:59.570Z,103.87
2023-05-25T21:19:27.693Z,103.50
2023-05-25T21:21:55.812Z,105.23
2023-05-25T21:24:23.992Z,105.20
2023-05-25T21:26:52.005Z,105.50
2023-05-25T21:29:21.632Z,106.03
2023-05-25T21:31:49.819Z,107.17
2023-05-25T21:34:17.880Z,108.97
2023-05-25T21:36:45.899Z,108.83
2023-05-25T21:39:14.033Z,108.67
2023-05-25T21:41:42.357Z,109.40
2023-05-25T21:44:10.438Z,108.67
2023-05-25T21:46:40.269Z,108.40
2023-05-25T21:49:08.343Z,110.20
2023-05-25T21:51:36.608Z,111.70
2023-05-25T21:54:04.923Z,111.50
2023-05-25T21:56:33.024Z,112.30
2023-05-25T21:59:01.197Z,113.80
2023-05-25T22:01:29.280Z,114.07
2023-05-25T22:03:58.743Z,116.57
2023-05-25T22:06:26.836Z,116.30
2023-05-25T22:08:54.917Z,115.37
2023-05-25T22:11:23.038Z,115.07
2023-05-25T22:13:51.122Z,116.77
2023-05-25T22:16:19.285Z,115.43
2023-05-25T22:18:47.424Z,116.53
2023-05-25T22:21:17.037Z,117.60
2023-05-25T22:23:45.113Z,117.90
2023-05-25T22:26:13.162Z,116.87
2023-05-25T22:28:41.186Z,118.07
2023-05-25T22:31:10.461Z,117.50
2023-05-25T22:33:38.465Z,119.70
2023-05-25T22:36:07.064Z,119.50
2023-05-25T22:38:36.716Z,120.53
2023-05-25T22:41:04.760Z,119.50
2023-05-25T22:43:32.816Z,121.73
2023-05-25T22:46:00.956Z,120.07
2023-05-25T22:48:29.134Z,119.73
2023-05-25T22:50:57.686Z,122.80
2023-05-25T22:53:25.761Z,120.70
2023-05-25T22:55:55.198Z,120.10
2023-05-25T22:58:23.283Z,119.37
2023-05-25T23:00:51.378Z,119.40
2023-05-25T23:03:19.498Z,117.63
2023-05-25T23:05:47.882Z,117.67
2023-05-25T23:08:16.068Z,118.13
2023-05-25T23:10:44.111Z,119.20
2023-05-25T23:13:14.919Z,119.27
2023-05-25T23:15:44.396Z,119.83
2023-05-25T23:18:12.635Z,122.53
2023-05-25T23:20:41.065Z,123.33
2023-05-25T23:23:09.167Z,121.40
2023-05-25T23:25:37.761Z,123.60
2023-05-25T23:28:06.274Z,125.90
2023-05-25T23:30:35.705Z,123.90
2023-05-25T23:33:03.790Z,124.17
2023-05-25T23:35:31.842Z,123.23
2023-05-25T23:38:01.851Z,124.13
2023-05-25T23:40:30.210Z,123.53
2023-05-25T23:43:05.027Z,123.83
2023-05-25T23:45:33.363Z,125.70
2023-05-25T23:48:02.859Z,122.50
2023-05-25T23:50:31.069Z,121.70
2023-05-25T23:52:59.100Z,121.70
2023-05-25T23:55:27.162Z,120.70
2023-05-25T23:57:55.192Z,123.53
